createdAt,value
2023-05-25T00:01:17.446Z,14.50
2023-05-25T00:03:45.968Z,15.55
2023-05-25T00:06:13.582Z,14.45
2023-05-25T00:08:41.117Z,14.68
2023-05-25T00:11:08.844Z,16.15
2023-05-25T00:13:36.519Z,14.13
2023-05-25T00:16:04.273Z,15.38
2023-05-25T00:18:37.890Z,15.60
2023-05-25T00:21:06.827Z,16.17
2023-05-25T00:23:34.711Z,14.75
2023-05-25T00:26:03.483Z,15.13
2023-05-25T00:28:30.964Z,15.75
2023-05-25T00:30:59.011Z,16.27
2023-05-25T00:33:26.585Z,13.82
2023-05-25T00:35:54.407Z,14.68
2023-05-25T00:38:22.793Z,14.10
2023-05-25T00:40:56.246Z,14.50
2023-05-25T00:43:24.029Z,12.70
2023-05-25T00:45:52.238Z,12.77
2023-05-25T00:48:20.071Z,15.15
2023-05-25T00:50:48.040Z,13.13
2023-05-25T00:53:15.798Z,13.88
2023-05-25T00:55:51.080Z,13.02
2023-05-25T00:58:23.174Z,13.62
2023-05-25T01:00:51.220Z,14.02
2023-05-25T01:03:21.826Z,12.53
2023-05-25T01:05:51.542Z,12.48
2023-05-25T01:08:21.288Z,14.35
2023-05-25T01:10:50.149Z,11.95
2023-05-25T01:13:19.554Z,15.75
2023-05-25T01:15:48.263Z,13.73
2023-05-25T01:18:16.326Z,13.05
2023-05-25T01:20:57.731Z,12.60
2023-05-25T01:23:31.417Z,11.40
2023-05-25T01:26:00.490Z,11.80
2023-05-25T01:28:30.873Z,13.50
2023-05-25T01:30:59.175Z,12.37
2023-05-25T01:33:27.696Z,12.63
2023-05-25T01:35:56.810Z,14.18
2023-05-25T01:38:24.479Z,16.02
2023-05-25T01:40:52.030Z,10.67
2023-05-25T01:43:20.712Z,14.57
2023-05-25T01:45:48.354Z,12.57
2023-05-25T01:48:28.030Z,9.75
2023-05-25T01:51:02.545Z,12.55
2023-05-25T01:53:34.497Z,12.93
2023-05-25T01:56:05.236Z,10.98
2023-05-25T01:58:39.461Z,10.95
2023-05-25T02:01:08.722Z,10.45
2023-05-25T02:03:38.333Z,11.57
2023-05-25T02:06:06.347Z,12.20
2023-05-25T02:08:35.588Z,10.27
2023-05-25T02:11:03.689Z,12.02
2023-05-25T02:13:31.307Z,11.52
2023-05-25T02:15:58.934Z,14.70
2023-05-25T02:18:27.745Z,11.00
2023-05-25T02:20:55.630Z,11.10
2023-05-25T02:23:23.131Z,11.52
2023-05-25T02:25:51.843Z,12.80
2023-05-25T02:28:20.031Z,12.07
2023-05-25T02:30:47.693Z,11.53
2023-05-25T02:33:15.314Z,10.38
2023-05-25T02:35:43.641Z,11.00
2023-05-25T02:38:11.520Z,11.00
2023-05-25T02:40:39.591Z,11.30
2023-05-25T02:43:07.515Z,11.07
2023-05-25T02:45:35.509Z,13.02
2023-05-25T02:48:03.146Z,9.73
2023-05-25T02:50:31.838Z,10.63
2023-05-25T02:53:00.378Z,11.25
2023-05-25T02:55:28.617Z,11.87
2023-05-25T02:57:56.958Z,10.40
2023-05-25T03:00:26.596Z,10.23
2023-05-25T03:02:54.359Z,12.40
2023-05-25T03:05:23.048Z,11.55
2023-05-25T03:07:50.941Z,11.20
2023-05-25T03:10:18.542Z,10.68
2023-05-25T03:12:46.383Z,11.30
2023-05-25T03:15:14.354Z,14.07
2023-05-25T03:17:42.114Z,15.65
2023-05-25T03:20:10.729Z,16.10
2023-05-25T03:22:40.051Z,18.27
2023-05-25T03:25:07.898Z,14.98
2023-05-25T03:27:36.349Z,17.27
2023-05-25T03:30:04.403Z,22.37
2023-05-25T03:32:32.468Z,17.73
2023-05-25T03:35:00.422Z,15.90
2023-05-25T03:37:28.042Z,19.85
2023-05-25T03:39:55.570Z,15.57
2023-05-25T03:42:23.729Z,18.42
2023-05-25T03:44:51.342Z,16.90
2023-05-25T03:47:18.854Z,16.05
2023-05-25T03:49:46.643Z,17.45
2023-05-25T03:52:14.166Z,16.37
2023-05-25T03:54:42.217Z,19.25
2023-05-25T03:57:10.023Z,14.40
2023-05-25T03:59:37.502Z,17.35
2023-05-25T04:02:05.925Z,19.70
2023-05-25T04:04:33.755Z,17.33
2023-05-25T04:07:01.646Z,16.15
2023-05-25T04:09:30.688Z,17.57
2023-05-25T04:11:58.503Z,15.32
2023-05-25T04:14:26.016Z,14.87
2023-05-25T04:16:53.751Z,18.55
2023-05-25T04:19:21.660Z,15.50
2023-05-25T04:21:49.129Z,17.40
2023-05-25T04:24:16.821Z,20.17
2023-05-25T04:26:46.218Z,17.08
2023-05-25T04:29:14.260Z,17.75
2023-05-25T04:31:45.607Z,16.40
2023-05-25T04:34:17.279Z,18.23
2023-05-25T04:36:45.027Z,18.20
2023-05-25T04:39:13.083Z,18.30
2023-05-25T04:41:40.997Z,19.20
2023-05-25T04:44:10.578Z,21.58
2023-05-25T04:46:39.175Z,18.33
2023-05-25T04:49:10.200Z,16.10
2023-05-25T04:51:37.805Z,17.90
2023-05-25T04:54:06.085Z,18.52
2023-05-25T04:56:34.250Z,16.80
2023-05-25T04:59:01.858Z,16.67
2023-05-25T05:01:29.574Z,18.75
2023-05-25T05:03:57.937Z,15.95
2023-05-25T05:06:25.820Z,14.98
2023-05-25T05:08:53.566Z,14.68
2023-05-25T05:11:21.765Z,17.83
2023-05-25T05:13:49.666Z,15.88
2023-05-25T05:16:17.384Z,16.87
2023-05-25T05:18:45.490Z,17.92
2023-05-25T05:21:13.097Z,14.77
2023-05-25T05:23:43.017Z,16.43
2023-05-25T05:26:11.799Z,16.10
2023-05-25T05:28:39.559Z,15.10
2023-05-25T05:31:07.501Z,16.60
2023-05-25T05:33:35.775Z,13.85
2023-05-25T05:36:04.740Z,16.67
2023-05-25T05:38:32.486Z,17.75
2023-05-25T05:41:01.324Z,16.98
2023-05-25T05:43:29.062Z,22.42
2023-05-25T05:45:56.640Z,16.48
2023-05-25T05:48:24.442Z,17.50
2023-05-25T05:50:52.494Z,18.67
2023-05-25T05:53:20.933Z,19.37
2023-05-25T05:55:51.798Z,22.00
2023-05-25T05:58:21.265Z,20.75
2023-05-25T06:00:49.104Z,18.87
2023-05-25T06:03:17.035Z,19.35
2023-05-25T06:05:45.096Z,16.08
2023-05-25T06:08:13.795Z,17.58
2023-05-25T06:10:42.485Z,18.87
2023-05-25T06:13:10.074Z,23.60
2023-05-25T06:15:37.672Z,18.70
2023-05-25T06:18:06.926Z,18.02
2023-05-25T06:20:35.544Z,20.92
2023-05-25T06:23:03.190Z,20.73
2023-05-25T06:25:31.043Z,17.47
2023-05-25T06:27:58.742Z,24.25
2023-05-25T06:30:26.893Z,20.55
2023-05-25T06:32:54.816Z,19.75
2023-05-25T06:35:22.598Z,18.87
2023-05-25T06:37:50.676Z,19.30
2023-05-25T06:40:18.774Z,18.98
2023-05-25T06:42:46.419Z,19.48
2023-05-25T06:45:24.492Z,18.08
2023-05-25T06:47:52.077Z,20.73
2023-05-25T06:50:20.695Z,25.33
2023-05-25T06:52:48.472Z,19.87
2023-05-25T06:55:16.048Z,20.60
2023-05-25T06:57:46.645Z,19.70
2023-05-25T07:00:14.983Z,17.98
2023-05-25T07:02:42.595Z,18.23
2023-05-25T07:05:10.276Z,18.70
2023-05-25T07:07:38.166Z,16.55
2023-05-25T07:10:06.241Z,19.60
2023-05-25T07:12:33.816Z,17.30
2023-05-25T07:15:01.711Z,17.33
2023-05-25T07:17:29.355Z,20.58
2023-05-25T07:19:57.118Z,17.75
2023-05-25T07:22:25.873Z,19.17
2023-05-25T07:24:53.548Z,19.42
2023-05-25T07:27:21.121Z,17.30
2023-05-25T07:29:48.954Z,18.23
2023-05-25T07:32:16.531Z,21.08
2023-05-25T07:34:44.116Z,20.37
2023-05-25T07:37:11.924Z,18.62
2023-05-25T07:39:40.582Z,16.50
2023-05-25T07:42:08.202Z,16.92
2023-05-25T07:44:36.003Z,16.92
2023-05-25T07:47:03.629Z,15.73
2023-05-25T07:49:31.257Z,14.35
2023-05-25T07:51:59.202Z,17.93
2023-05-25T07:54:26.714Z,16.55
2023-05-25T07:56:54.295Z,14.87
2023-05-25T07:59:22.174Z,14.25
2023-05-25T08:01:49.759Z,15.00
2023-05-25T08:04:17.639Z,13.73
2023-05-25T08:06:45.221Z,14.15
2023-05-25T08:09:13.542Z,17.40
2023-05-25T08:11:41.391Z,16.15
2023-05-25T08:14:08.944Z,14.85
2023-05-25T08:16:36.860Z,15.33
2023-05-25T08:19:04.848Z,17.15
2023-05-25T08:21:35.182Z,15.13
2023-05-25T08:24:06.098Z,15.73
2023-05-25T08:26:52.892Z,16.12
2023-05-25T08:29:22.163Z,19.10
2023-05-25T08:31:51.290Z,14.80
2023-05-25T08:34:19.061Z,15.18
2023-05-25T08:36:46.876Z,15.35
2023-05-25T08:39:15.816Z,15.68
2023-05-25T08:41:45.109Z,13.43
2023-05-25T08:44:14.615Z,16.30
2023-05-25T08:46:42.794Z,16.10
2023-05-25T08:49:14.472Z,15.32
2023-05-25T08:51:49.618Z,15.70
2023-05-25T08:54:26.461Z,14.70
2023-05-25T08:56:58.166Z,16.02
2023-05-25T08:59:31.675Z,14.87
2023-05-25T09:02:07.751Z,14.82
2023-05-25T09:04:35.828Z,15.15
2023-05-25T09:07:10.426Z,15.33
2023-05-25T09:09:39.636Z,14.48
2023-05-25T09:12:08.185Z,13.85
2023-05-25T09:14:37.824Z,20.35
2023-05-25T09:17:05.566Z,13.95
2023-05-25T09:19:36.478Z,20.97
2023-05-25T09:22:14.974Z,15.52
2023-05-25T09:24:45.355Z,13.50
2023-05-25T09:27:20.334Z,15.80
2023-05-25T09:29:49.373Z,13.32
2023-05-25T09:32:17.990Z,11.63
2023-05-25T09:34:48.421Z,14.68
2023-05-25T09:37:17.433Z,13.43
2023-05-25T09:39:45.482Z,11.57
2023-05-25T09:42:13.296Z,14.07
2023-05-25T09:44:42.744Z,10.97
2023-05-25T09:47:10.412Z,10.07
2023-05-25T09:49:38.582Z,9.68
2023-05-25T09:52:06.519Z,11.80
2023-05-25T09:54:33.992Z,9.52
2023-05-25T09:57:04.069Z,10.93
2023-05-25T09:59:32.205Z,11.65
2023-05-25T10:01:59.933Z,11.93
2023-05-25T10:04:27.801Z,9.30
2023-05-25T10:06:57.040Z,10.25
2023-05-25T10:09:26.066Z,10.17
2023-05-25T10:11:54.973Z,9.48
2023-05-25T10:14:29.436Z,12.75
2023-05-25T10:16:59.649Z,13.18
2023-05-25T10:19:48.202Z,9.65
2023-05-25T10:22:22.076Z,10.20
2023-05-25T10:24:57.754Z,8.65
2023-05-25T10:27:30.241Z,11.38
2023-05-25T10:29:59.191Z,10.50
2023-05-25T10:32:27.381Z,10.65
2023-05-25T10:34:57.223Z,8.80
2023-05-25T10:37:27.500Z,9.90
2023-05-25T10:39:57.258Z,11.30
2023-05-25T10:42:26.233Z,9.10
2023-05-25T10:44:54.698Z,8.65
2023-05-25T10:47:22.958Z,8.87
2023-05-25T10:49:58.601Z,10.50
2023-05-25T10:52:30.990Z,9.45
2023-05-25T10:55:01.997Z,9.80
2023-05-25T10:57:30.153Z,8.88
2023-05-25T11:00:10.344Z,7.43
2023-05-25T11:02:55.984Z,9.82
2023-05-25T11:05:26.810Z,9.80
2023-05-25T11:07:56.312Z,12.45
2023-05-25T11:10:50.172Z,10.30
2023-05-25T11:13:40.669Z,10.03
2023-05-25T11:16:30.734Z,10.23
2023-05-25T11:19:01.519Z,9.93
2023-05-25T11:21:30.355Z,10.70
2023-05-25T11:24:03.203Z,9.23
2023-05-25T11:26:32.647Z,14.57
2023-05-25T11:29:02.220Z,8.55
2023-05-25T11:31:35.226Z,8.48
2023-05-25T11:34:05.842Z,9.80
2023-05-25T11:36:35.991Z,8.82
2023-05-25T11:39:11.690Z,9.73
2023-05-25T11:41:51.503Z,31.00
2023-05-25T11:44:36.899Z,9.10
2023-05-25T11:47:14.905Z,8.10
2023-05-25T11:49:46.262Z,15.27
2023-05-25T11:52:18.238Z,9.87
2023-05-25T11:54:46.543Z,12.20
2023-05-25T11:57:19.761Z,11.20
2023-05-25T11:59:55.591Z,8.15
2023-05-25T12:02:24.173Z,9.38
2023-05-25T12:04:59.136Z,10.70
2023-05-25T12:07:27.372Z,9.23
2023-05-25T12:10:12.227Z,8.40
2023-05-25T12:12:41.268Z,8.70
2023-05-25T12:15:14.316Z,10.35
2023-05-25T12:17:43.138Z,10.13
2023-05-25T12:20:12.425Z,8.60
2023-05-25T12:22:40.345Z,8.70
2023-05-25T12:25:10.347Z,17.12
2023-05-25T12:27:38.592Z,10.02
2023-05-25T12:30:08.917Z,9.23
2023-05-25T12:33:02.008Z,7.90
2023-05-25T12:35:44.081Z,9.98
2023-05-25T12:38:12.838Z,10.07
2023-05-25T12:40:41.734Z,13.65
2023-05-25T12:43:11.821Z,12.07
2023-05-25T12:45:43.268Z,10.55
2023-05-25T12:48:11.138Z,9.00
2023-05-25T12:50:38.905Z,10.07
2023-05-25T12:53:06.728Z,7.45
2023-05-25T12:55:36.332Z,8.53
2023-05-25T12:58:05.711Z,10.20
2023-05-25T13:00:38.807Z,8.35
2023-05-25T13:03:09.929Z,10.10
2023-05-25T13:05:38.393Z,10.63
2023-05-25T13:08:06.965Z,10.30
2023-05-25T13:10:37.502Z,8.63
2023-05-25T13:13:05.321Z,10.48
2023-05-25T13:15:33.068Z,9.00
2023-05-25T13:18:00.925Z,10.02
2023-05-25T13:20:32.598Z,10.70
2023-05-25T13:23:00.404Z,10.88
2023-05-25T13:25:28.360Z,11.15
2023-05-25T13:27:57.894Z,7.90
2023-05-25T13:30:26.732Z,11.38
2023-05-25T13:32:54.417Z,9.03
2023-05-25T13:35:41.788Z,8.45
2023-05-25T13:38:10.657Z,12.80
2023-05-25T13:40:38.526Z,9.07
2023-05-25T13:43:26.332Z,9.02
2023-05-25T13:46:25.920Z,8.20
2023-05-25T13:49:21.388Z,7.93
2023-05-25T13:52:09.130Z,10.65
2023-05-25T13:54:56.560Z,17.15
2023-05-25T13:57:44.303Z,7.90
2023-05-25T14:00:12.445Z,12.73
2023-05-25T14:02:40.536Z,9.50
2023-05-25T14:05:08.669Z,9.77
2023-05-25T14:07:36.365Z,10.82
2023-05-25T14:10:04.686Z,9.25
2023-05-25T14:12:33.552Z,9.23
2023-05-25T14:15:01.173Z,10.88
2023-05-25T14:17:29.036Z,9.93
2023-05-25T14:19:56.597Z,14.82
2023-05-25T14:22:24.611Z,9.30
2023-05-25T14:24:52.759Z,11.67
2023-05-25T14:27:22.930Z,10.15
2023-05-25T14:29:51.378Z,9.82
2023-05-25T14:32:19.446Z,8.38
2023-05-25T14:34:47.075Z,9.10
2023-05-25T14:37:14.512Z,8.63
2023-05-25T14:39:42.333Z,9.63
2023-05-25T14:42:09.818Z,8.02
2023-05-25T14:44:37.390Z,16.23
2023-05-25T14:47:05.518Z,10.15
2023-05-25T14:49:33.157Z,9.23
2023-05-25T14:52:00.625Z,8.85
2023-05-25T14:54:28.391Z,8.23
2023-05-25T14:56:55.973Z,11.20
2023-05-25T14:59:23.578Z,9.40
2023-05-25T15:01:51.701Z,7.67
2023-05-25T15:04:19.297Z,7.82
2023-05-25T15:06:46.910Z,9.55
2023-05-25T15:09:15.897Z,8.52
2023-05-25T15:11:43.505Z,8.65
2023-05-25T15:14:11.086Z,7.50
2023-05-25T15:16:39.142Z,7.95
2023-05-25T15:19:09.975Z,10.52
2023-05-25T15:21:42.472Z,9.32
2023-05-25T15:24:10.782Z,9.75
2023-05-25T15:26:38.302Z,7.83
2023-05-25T15:29:06.144Z,7.03
2023-05-25T15:31:33.855Z,11.35
2023-05-25T15:34:01.392Z,9.55
2023-05-25T15:36:29.173Z,9.93
2023-05-25T15:38:56.835Z,10.90
2023-05-25T15:41:24.457Z,11.68
2023-05-25T15:43:57.966Z,8.40
2023-05-25T15:46:26.246Z,8.45
2023-05-25T15:48:54.326Z,11.63
2023-05-25T15:51:22.101Z,15.47
2023-05-25T15:53:49.702Z,8.15
2023-05-25T15:56:17.629Z,11.07
2023-05-25T15:58:48.896Z,8.73
2023-05-25T16:01:16.887Z,9.82
2023-05-25T16:03:44.862Z,9.70
2023-05-25T16:06:12.659Z,7.75
2023-05-25T16:08:40.330Z,10.32
2023-05-25T16:11:08.167Z,9.68
2023-05-25T16:13:35.741Z,8.55
2023-05-25T16:16:03.275Z,8.73
2023-05-25T16:18:31.107Z,8.73
2023-05-25T16:20:58.618Z,11.57
2023-05-25T16:23:26.192Z,10.27
2023-05-25T16:25:54.176Z,9.30
2023-05-25T16:28:21.666Z,9.90
2023-05-25T16:30:49.249Z,9.63
2023-05-25T16:33:17.107Z,10.23
2023-05-25T16:35:45.234Z,8.80
2023-05-25T16:38:12.997Z,11.38
2023-05-25T16:40:40.897Z,11.70
2023-05-25T16:43:08.507Z,7.93
2023-05-25T16:45:36.018Z,9.50
2023-05-25T16:48:04.038Z,12.45
2023-05-25T16:50:31.698Z,8.60
2023-05-25T16:52:59.326Z,11.87
2023-05-25T16:55:27.195Z,9.90
2023-05-25T16:57:54.713Z,9.85
2023-05-25T17:00:22.848Z,13.38
2023-05-25T17:02:50.857Z,8.10
2023-05-25T17:05:18.437Z,10.37
2023-05-25T17:07:46.020Z,10.57
2023-05-25T17:10:13.850Z,9.55
2023-05-25T17:12:41.380Z,11.35
2023-05-25T17:15:11.166Z,10.30
2023-05-25T17:17:38.970Z,12.40
2023-05-25T17:20:06.821Z,11.07
2023-05-25T17:22:34.424Z,9.50
2023-05-25T17:25:02.269Z,10.18
2023-05-25T17:27:29.809Z,8.90
2023-05-25T17:29:57.418Z,10.27
2023-05-25T17:32:25.335Z,11.45
2023-05-25T17:34:53.035Z,9.18
2023-05-25T17:37:21.194Z,9.73
2023-05-25T17:39:49.387Z,10.18
2023-05-25T17:42:17.053Z,11.83
2023-05-25T17:44:44.585Z,12.15
2023-05-25T17:47:12.456Z,19.25
2023-05-25T17:49:40.052Z,10.38
2023-05-25T17:52:07.792Z,10.73
2023-05-25T17:54:35.666Z,14.20
2023-05-25T17:57:03.648Z,12.55
2023-05-25T17:59:31.240Z,11.20
2023-05-25T18:01:59.230Z,11.85
2023-05-25T18:04:27.033Z,9.45
2023-05-25T18:06:54.588Z,10.77
2023-05-25T18:09:22.322Z,10.20
2023-05-25T18:11:52.969Z,10.35
2023-05-25T18:14:22.040Z,10.27
2023-05-25T18:16:49.979Z,11.57
2023-05-25T18:19:20.283Z,9.93
2023-05-25T18:21:47.823Z,12.07
2023-05-25T18:24:15.665Z,10.27
2023-05-25T18:26:44.001Z,11.48
2023-05-25T18:29:11.530Z,13.20
2023-05-25T18:31:45.564Z,11.40
2023-05-25T18:34:13.564Z,12.75
2023-05-25T18:36:41.396Z,10.85
2023-05-25T18:39:09.088Z,12.75
2023-05-25T18:41:37.061Z,18.90
2023-05-25T18:44:05.430Z,10.90
2023-05-25T18:46:33.114Z,11.68
2023-05-25T18:49:00.872Z,11.90
2023-05-25T18:51:28.803Z,13.20
2023-05-25T18:53:58.619Z,12.55
2023-05-25T18:56:26.181Z,12.33
2023-05-25T18:58:55.372Z,14.10
2023-05-25T19:01:25.380Z,13.07
2023-05-25T19:03:53.847Z,13.20
2023-05-25T19:06:23.455Z,10.60
2023-05-25T19:08:51.191Z,11.70
2023-05-25T19:11:22.390Z,10.93
2023-05-25T19:13:50.300Z,11.43
2023-05-25T19:16:17.993Z,13.25
2023-05-25T19:18:45.634Z,11.25
2023-05-25T19:21:13.813Z,11.83
2023-05-25T19:23:41.808Z,12.90
2023-05-25T19:26:09.403Z,10.18
2023-05-25T19:28:37.405Z,11.93
2023-05-25T19:31:07.776Z,12.85
2023-05-25T19:33:53.193Z,15.07
2023-05-25T19:36:24.008Z,18.12
2023-05-25T19:38:58.758Z,13.93
2023-05-25T19:41:33.038Z,13.57
2023-05-25T19:44:05.627Z,12.68
2023-05-25T19:46:42.364Z,11.73
2023-05-25T19:49:18.128Z,13.35
2023-05-25T19:51:59.719Z,12.88
2023-05-25T19:54:31.897Z,13.38
2023-05-25T19:57:10.190Z,13.00
2023-05-25T19:59:43.523Z,11.17
2023-05-25T20:02:14.977Z,12.00
2023-05-25T20:04:56.444Z,13.60
2023-05-25T20:07:37.402Z,12.98
2023-05-25T20:10:09.350Z,13.00
2023-05-25T20:12:40.552Z,14.27
2023-05-25T20:15:08.733Z,14.18
2023-05-25T20:17:36.755Z,10.98
2023-05-25T20:20:05.303Z,12.57
2023-05-25T20:22:33.270Z,13.93
2023-05-25T20:25:01.127Z,10.87
2023-05-25T20:27:28.680Z,13.43
2023-05-25T20:29:56.878Z,14.60
2023-05-25T20:32:24.674Z,12.48
2023-05-25T20:34:52.304Z,15.73
2023-05-25T20:37:20.405Z,14.13
2023-05-25T20:39:47.957Z,14.87
2023-05-25T20:42:15.531Z,13.27
2023-05-25T20:44:43.358Z,12.88
2023-05-25T20:47:11.117Z,13.50
2023-05-25T20:49:38.601Z,13.83
2023-05-25T20:52:06.506Z,14.40
2023-05-25T20:54:34.110Z,13.68
2023-05-25T20:57:04.504Z,11.50
2023-05-25T20:59:32.438Z,12.23
2023-05-25T21:01:59.991Z,12.10
2023-05-25T21:04:28.502Z,14.70
2023-05-25T21:06:57.628Z,13.25
2023-05-25T21:09:25.234Z,10.43
2023-05-25T21:11:52.710Z,11.95
2023-05-25T21:14:20.544Z,10.63
2023-05-25T21:16:49.885Z,15.45
2023-05-25T21:19:17.477Z,14.05
2023-05-25T21:21:45.391Z,14.02
2023-05-25T21:24:13.089Z,13.60
2023-05-25T21:26:40.654Z,13.67
2023-05-25T21:29:08.468Z,12.10
2023-05-25T21:31:36.136Z,11.48
2023-05-25T21:34:03.683Z,17.80
2023-05-25T21:36:32.399Z,12.70
2023-05-25T21:38:59.900Z,14.50
2023-05-25T21:41:28.253Z,12.65
2023-05-25T21:43:56.044Z,11.40
2023-05-25T21:46:23.550Z,11.02
2023-05-25T21:48:51.288Z,12.57
2023-05-25T21:51:19.182Z,11.70
2023-05-25T21:53:46.651Z,11.40
2023-05-25T21:56:14.148Z,13.50
2023-05-25T21:58:41.931Z,11.95
2023-05-25T22:01:09.378Z,11.43
2023-05-25T22:03:37.366Z,11.87
2023-05-25T22:06:05.090Z,10.98
2023-05-25T22:08:32.606Z,12.35
2023-05-25T22:11:00.655Z,13.05
2023-05-25T22:13:28.357Z,11.45
2023-05-25T22:15:56.034Z,11.53
2023-05-25T22:18:23.947Z,14.48
2023-05-25T22:20:51.437Z,12.25
2023-05-25T22:23:19.012Z,15.85
2023-05-25T22:25:47.049Z,17.83
2023-05-25T22:28:14.985Z,12.87
2023-05-25T22:30:42.592Z,10.90
2023-05-25T22:33:10.713Z,11.98
2023-05-25T22:35:38.253Z,14.90
2023-05-25T22:38:05.778Z,12.63
2023-05-25T22:40:33.624Z,15.73
2023-05-25T22:43:01.082Z,14.63
2023-05-25T22:45:28.563Z,16.75
2023-05-25T22:47:56.516Z,10.85
2023-05-25T22:50:24.175Z,13.20
2023-05-25T22:52:51.751Z,12.27
2023-05-25T22:55:19.554Z,11.80
2023-05-25T22:57:47.147Z,13.62
2023-05-25T23:00:14.769Z,12.45
2023-05-25T23:02:42.650Z,16.05
2023-05-25T23:05:10.563Z,13.37
2023-05-25T23:07:38.042Z,14.75
2023-05-25T23:10:06.266Z,14.77
2023-05-25T23:12:33.857Z,14.07
2023-05-25T23:15:02.660Z,13.38
2023-05-25T23:17:31.662Z,13.70
2023-05-25T23:19:59.277Z,15.35
2023-05-25T23:22:26.922Z,16.05
2023-05-25T23:24:54.770Z,12.60
2023-05-25T23:27:22.277Z,12.35
2023-05-25T23:29:49.747Z,15.10
2023-05-25T23:32:17.506Z,15.60
2023-05-25T23:34:45.011Z,13.55
2023-05-25T23:37:12.465Z,15.55
2023-05-25T23:39:40.224Z,13.57
2023-05-25T23:42:07.974Z,13.03
2023-05-25T23:44:35.577Z,12.95
2023-05-25T23:47:03.402Z,11.23
2023-05-25T23:49:31.090Z,11.75
2023-05-25T23:51:58.609Z,10.35
2023-05-25T23:54:26.359Z,12.60
2023-05-25T23:56:53.898Z,11.02
2023-05-25T23:59:21.404Z,14.23
